Terminal Aerodrome Forecast
Issued by NWS Spokane, WA

Home | Current Version | Previous Version | Text Only | Print | Product List | Glossary On
Versions: 1 2 3 4 5 6 7 8 9 10 11 12 13 14 15 16 17 18
000
FTUS46 KOTX 052341
TAFLWS
TAF
KLWS 052341Z 0600/0624 VRB04KT P6SM SCT050 BKN110
     FM060400 12004KT 6SM -SN SCT025 OVC040
     FM060900 13005KT 6SM -SN OVC025
     FM061300 VRB04KT P6SM VCSH SCT030 OVC050=

USA.gov is the U.S. government's official web portal to all federal, state and local government web resources and services.